AirNav   Air Wisconsin Up To $57,000 Bonus
 
 1349 users online  

1LL7 Edwin G Bennett Airport
Sheffield, Illinois, USA

GOING TO SHEFFIELD?


FAA INFORMATION EFFECTIVE 01 DECEMBER 2022

Location

FAA Identifier: 1LL7
Lat/Long: 41-20-59.1290N 089-46-23.3660W
41-20.985483N 089-46.389433W
41.3497581,-89.7731572
(estimated)
Elevation: 690 ft. / 210.3 m (surveyed)
Variation: 01E (1985)
From city: 2 miles SW of SHEFFIELD, IL
Time zone: UTC -6 (UTC -5 during Daylight Saving Time)
Zip code: 61345

Airport Operations

Airport use: Private use. Permission required prior to landing
Activation date: 03/1967
Control tower: no
ARTCC: CHICAGO CENTER
FSS: KANKAKEE FLIGHT SERVICE STATION
Attendance: IREG
Wind indicator: yes
Segmented circle: no

Nearby radio navigation aids

VOR radial/distance  VOR name  Freq  Var
BDFr324/14.1BRADFORD VORTAC114.7000E
CVAr120/38.5DAVENPORT VORTAC113.8004E
PLLr194/38.6POLO VOR/DME111.2003E
MZVr082/39.0MOLINE VOR/DME114.4005E

Airport Services

Airframe service: NONE
Powerplant service: NONE

Runway Information

Runway E/W

Dimensions: 2000 x 100 ft. / 610 x 30 m
Surface: turf
RUNWAY E  RUNWAY W
Traffic pattern: leftleft

Airport Ownership and Management from official FAA records

Ownership: Privately-owned
Owner: EDWIN G. BENNETT
RTE 1
SHEFFIELD, IL 61361
Phone 815-454-2281

Airport Operational Statistics

Aircraft based on the field: 2
Single engine airplanes: 2
    

Additional Remarks

FOR CD CTC CHICAGO ARTCC AT 630-906-8921.

Instrument Procedures

There are no published instrument procedures at 1LL7.

Some nearby airports with instrument procedures:

KEZI - Kewanee Municipal Airport (12 nm SW)
KSQI - Whiteside County Airport/Jos H Bittorf Field (24 nm N)
C75 - Marshall County Airport (26 nm SE)
KVYS - Illinois Valley Regional Airport-Walter A Duncan Field (28 nm E)
C73 - Dixon Municipal Airport-Charles R. Walgreen Field (33 nm NE)
 
Loc | Ops | Rwys | IFR | FBO | Links
Com | Nav | Svcs | Stats | Notes
Area around 1LL7 (Edwin G Bennett Airport)
 
Road maps at: MapQuest Bing Google
 
Aerial photo
No photo
 
Sectional chart

 
Airport distance calculator
Flying to Edwin G Bennett Airport? Find the distance to fly.

From to 1LL7

Sunrise and sunset
Times for 07-Dec-2022
 Local
(UTC-6)
 Zulu
(UTC)
Morning civil twilight06:4112:41
Sunrise07:1313:13
Sunset16:2922:29
Evening civil twilight17:0023:00

Current date and time
Zulu (UTC)  07-Dec-2022 15:01:28
Local (UTC-6)  07-Dec-2022 09:01:28
 
METAR
KSQI 
24nm N 
071456Z AUTO 00000KT 3SM BR OVC016 02/02 A3025 RMK AO2 SLP111 T00170017 51017 FZRANO
KC75 
27nm SE 
071455Z AUTO 00000KT 3SM BR OVC010 04/03 A3025 RMK AO2 T00360025
KVYS 
28nm E 
071455Z AUTO 00000KT 4SM BR OVC010 05/02 A3024 RMK AO2 T00460022
KMLI 
34nm W 
071452Z 24003KT M1/4SM R09/0800V1000FT FG VV002 02/01 A3024 RMK AO2 SLP246 I1000 I3001 T00170011 53025
KCWI 
37nm NW 
071456Z AUTO 24005KT 3/4SM BR OVC004 01/01 A3025 RMK AO2 CIG 002V005 SLP258 P0000 60000 T00110011 53029 FZRANO
KGBG 
39nm SW 
071435Z AUTO 13004KT M1/4SM FG OVC002 01/01 A3024 RMK AO2 T00050005
KDVN 
40nm NW 
071452Z AUTO 25004KT M1/4SM FG VV002 01/01 A3026 RMK AO2 SLP252 I1000 I3001 T00060006 53028
KPIA 
41nm S 
071454Z 14003KT 1 1/2SM BR OVC004 03/03 A3025 RMK AO2 SLP248 T00330033 53013 $
KRPJ 
45nm NE 
071455Z AUTO 00000KT 4SM BR OVC010 03/03 A3024 RMK AO2 T00320025 TSNO
TAF
KMLI 
34nm W 
071134Z 0712/0812 VRB03KT 1/4SM FG VV002 TEMPO 0714/0716 1SM BR OVC003 FM071600 VRB04KT P6SM SCT040 FM080000 01006KT P6SM SCT250
KPIA 
41nm S 
071121Z 0712/0812 VRB03KT 1SM BR OVC004 TEMPO 0712/0714 1/2SM FG VV002 FM071600 VRB03KT 4SM BR BKN012 FM071800 31005KT P6SM BKN018 FM080000 04003KT P6SM SCT180 BKN250 FM080800 08008KT P6SM BKN180
NOTAMs
Click for the latest NOTAMs
NOTAMs are issued by the DoD/FAA and will open in a separate window not controlled by AirNav.

 

 
 

Would you like to see your business listed on this page?

 If your business provides an interesting product or service to pilots, flight crews, aircraft, or users of the Edwin G Bennett Airport, you should consider listing it here.  To start the listing process, click on the button below
 
Add a business
 

Other Pages about Edwin G Bennett Airport

Update a link
 
Copyright © AirNav, LLC. All rights reserved. Privacy Policy  Contact